sensor_id;sensor_type;location;lat;lon;timestamp;temperature;humidity
21282;DHT22;10800;53.096;18.328;2023-03-04T00:00:12;2.40;99.90
21282;DHT22;10800;53.096;18.328;2023-03-04T00:05:18;2.40;99.90
21282;DHT22;10800;53.096;18.328;2023-03-04T00:10:24;2.40;99.90
21282;DHT22;10800;53.096;18.328;2023-03-04T00:15:31;2.40;99.90
21282;DHT22;10800;53.096;18.328;2023-03-04T00:20:37;2.40;99.90
21282;DHT22;10800;53.096;18.328;2023-03-04T00:25:42;2.40;99.90
21282;DHT22;10800;53.096;18.328;2023-03-04T00:30:47;2.40;99.90
21282;DHT22;10800;53.096;18.328;2023-03-04T00:35:52;2.40;99.90
21282;DHT22;10800;53.096;18.328;2023-03-04T00:40:58;2.30;99.90
21282;DHT22;10800;53.096;18.328;2023-03-04T00:46:05;2.40;99.90
21282;DHT22;10800;53.096;18.328;2023-03-04T00:51:10;2.30;99.90
21282;DHT22;10800;53.096;18.328;2023-03-04T00:56:16;2.30;99.90
21282;DHT22;10800;53.096;18.328;2023-03-04T01:01:21;2.40;99.90
21282;DHT22;10800;53.096;18.328;2023-03-04T01:06:26;2.40;99.90
21282;DHT22;10800;53.096;18.328;2023-03-04T01:11:36;2.40;99.90
21282;DHT22;10800;53.096;18.328;2023-03-04T01:16:41;2.50;99.90
21282;DHT22;10800;53.096;18.328;2023-03-04T01:21:48;2.50;99.90
21282;DHT22;10800;53.096;18.328;2023-03-04T01:26:55;2.50;99.90
21282;DHT22;10800;53.096;18.328;2023-03-04T01:32:03;2.60;99.90
21282;DHT22;10800;53.096;18.328;2023-03-04T01:37:08;2.70;99.90
21282;DHT22;10800;53.096;18.328;2023-03-04T01:42:17;2.70;99.90
21282;DHT22;10800;53.096;18.328;2023-03-04T01:47:26;2.70;99.90
21282;DHT22;10800;53.096;18.328;2023-03-04T01:52:36;2.70;99.90
21282;DHT22;10800;53.096;18.328;2023-03-04T01:57:44;2.80;99.90
21282;DHT22;10800;53.096;18.328;2023-03-04T02:02:56;2.80;99.90
21282;DHT22;10800;53.096;18.328;2023-03-04T02:08:02;2.80;99.90
21282;DHT22;10800;53.096;18.328;2023-03-04T02:13:08;2.90;99.90
21282;DHT22;10800;53.096;18.328;2023-03-04T02:18:20;2.90;99.90
21282;DHT22;10800;53.096;18.328;2023-03-04T02:23:46;2.90;99.90
21282;DHT22;10800;53.096;18.328;2023-03-04T02:28:53;3.00;99.90
21282;DHT22;10800;53.096;18.328;2023-03-04T02:34:05;2.90;99.90
21282;DHT22;10800;53.096;18.328;2023-03-04T02:49:36;3.00;99.90
21282;DHT22;10800;53.096;18.328;2023-03-04T02:54:43;3.00;99.90
21282;DHT22;10800;53.096;18.328;2023-03-04T02:59:48;3.00;99.90
21282;DHT22;10800;53.096;18.328;2023-03-04T03:04:53;3.00;99.90
21282;DHT22;10800;53.096;18.328;2023-03-04T03:09:58;3.10;99.90
21282;DHT22;10800;53.096;18.328;2023-03-04T03:15:08;3.10;99.90
21282;DHT22;10800;53.096;18.328;2023-03-04T03:20:15;3.10;99.90
21282;DHT22;10800;53.096;18.328;2023-03-04T03:25:20;3.10;99.90
21282;DHT22;10800;53.096;18.328;2023-03-04T03:30:27;3.10;99.90
21282;DHT22;10800;53.096;18.328;2023-03-04T03:35:33;3.10;99.90
21282;DHT22;10800;53.096;18.328;2023-03-04T03:40:38;3.10;99.90
21282;DHT22;10800;53.096;18.328;2023-03-04T03:45:44;3.10;99.90
21282;DHT22;10800;53.096;18.328;2023-03-04T03:50:50;3.20;99.90
21282;DHT22;10800;53.096;18.328;2023-03-04T03:55:58;3.10;99.90
21282;DHT22;10800;53.096;18.328;2023-03-04T04:01:03;3.20;99.90
21282;DHT22;10800;53.096;18.328;2023-03-04T04:06:11;3.20;99.90
21282;DHT22;10800;53.096;18.328;2023-03-04T04:11:17;3.20;99.90
21282;DHT22;10800;53.096;18.328;2023-03-04T04:16:22;3.20;99.90
21282;DHT22;10800;53.096;18.328;2023-03-04T04:21:30;3.20;99.90
21282;DHT22;10800;53.096;18.328;2023-03-04T04:26:35;3.20;99.90
21282;DHT22;10800;53.096;18.328;2023-03-04T04:31:41;3.10;99.90
21282;DHT22;10800;53.096;18.328;2023-03-04T04:36:49;3.20;99.90
21282;DHT22;10800;53.096;18.328;2023-03-04T04:41:55;3.20;99.90
21282;DHT22;10800;53.096;18.328;2023-03-04T04:47:01;3.20;99.90
21282;DHT22;10800;53.096;18.328;2023-03-04T04:52:07;3.20;99.90
21282;DHT22;10800;53.096;18.328;2023-03-04T04:57:13;3.10;99.90
21282;DHT22;10800;53.096;18.328;2023-03-04T05:02:23;3.20;99.90
21282;DHT22;10800;53.096;18.328;2023-03-04T05:07:28;3.20;99.90
21282;DHT22;10800;53.096;18.328;2023-03-04T05:12:35;3.20;99.90
21282;DHT22;10800;53.096;18.328;2023-03-04T05:17:44;3.20;99.90
21282;DHT22;10800;53.096;18.328;2023-03-04T05:22:51;3.20;99.90
21282;DHT22;10800;53.096;18.328;2023-03-04T05:27:57;3.20;99.90
21282;DHT22;10800;53.096;18.328;2023-03-04T05:33:05;3.20;99.90
21282;DHT22;10800;53.096;18.328;2023-03-04T05:38:14;3.20;99.90
21282;DHT22;10800;53.096;18.328;2023-03-04T05:43:19;3.20;99.90
21282;DHT22;10800;53.096;18.328;2023-03-04T05:48:26;3.20;99.90
21282;DHT22;10800;53.096;18.328;2023-03-04T05:53:35;3.20;99.90
21282;DHT22;10800;53.096;18.328;2023-03-04T05:58:41;3.20;99.90
21282;DHT22;10800;53.096;18.328;2023-03-04T06:03:47;3.30;99.90
21282;DHT22;10800;53.096;18.328;2023-03-04T06:08:52;3.30;99.90
21282;DHT22;10800;53.096;18.328;2023-03-04T06:13:58;3.30;99.90
21282;DHT22;10800;53.096;18.328;2023-03-04T06:19:03;3.30;99.90
21282;DHT22;10800;53.096;18.328;2023-03-04T06:24:08;3.30;99.90
21282;DHT22;10800;53.096;18.328;2023-03-04T06:29:14;3.30;99.90
21282;DHT22;10800;53.096;18.328;2023-03-04T06:34:20;3.40;99.90
21282;DHT22;10800;53.096;18.328;2023-03-04T06:39:25;3.40;99.90
21282;DHT22;10800;53.096;18.328;2023-03-04T06:44:30;3.40;99.90
21282;DHT22;10800;53.096;18.328;2023-03-04T06:49:35;3.40;99.90
21282;DHT22;10800;53.096;18.328;2023-03-04T06:54:41;3.40;99.90
21282;DHT22;10800;53.096;18.328;2023-03-04T06:59:46;3.40;99.90
21282;DHT22;10800;53.096;18.328;2023-03-04T07:04:51;3.50;99.90
21282;DHT22;10800;53.096;18.328;2023-03-04T07:09:56;3.50;99.90
21282;DHT22;10800;53.096;18.328;2023-03-04T07:15:07;3.50;99.90
21282;DHT22;10800;53.096;18.328;2023-03-04T07:20:09;3.50;99.90
21282;DHT22;10800;53.096;18.328;2023-03-04T07:25:14;3.60;99.90
21282;DHT22;10800;53.096;18.328;2023-03-04T07:30:21;3.60;99.90
21282;DHT22;10800;53.096;18.328;2023-03-04T07:35:27;3.60;99.90
21282;DHT22;10800;53.096;18.328;2023-03-04T07:40:32;3.60;99.90
21282;DHT22;10800;53.096;18.328;2023-03-04T07:45:38;3.60;99.90
21282;DHT22;10800;53.096;18.328;2023-03-04T07:50:44;3.60;99.90
21282;DHT22;10800;53.096;18.328;2023-03-04T07:55:51;3.70;99.90
21282;DHT22;10800;53.096;18.328;2023-03-04T08:00:56;3.70;99.90
21282;DHT22;10800;53.096;18.328;2023-03-04T08:06:04;3.70;99.90
21282;DHT22;10800;53.096;18.328;2023-03-04T08:11:25;3.70;99.90
21282;DHT22;10800;53.096;18.328;2023-03-04T08:16:31;3.80;99.90
21282;DHT22;10800;53.096;18.328;2023-03-04T08:21:36;3.80;99.90
21282;DHT22;10800;53.096;18.328;2023-03-04T08:26:44;3.80;99.90
21282;DHT22;10800;53.096;18.328;2023-03-04T08:31:52;3.80;99.90
21282;DHT22;10800;53.096;18.328;2023-03-04T08:36:59;3.80;99.90
21282;DHT22;10800;53.096;18.328;2023-03-04T08:42:05;3.80;99.90
21282;DHT22;10800;53.096;18.328;2023-03-04T08:47:10;3.80;99.90
21282;DHT22;10800;53.096;18.328;2023-03-04T08:52:15;3.80;99.90
21282;DHT22;10800;53.096;18.328;2023-03-04T08:57:21;3.90;99.90
21282;DHT22;10800;53.096;18.328;2023-03-04T09:02:26;3.90;99.90
21282;DHT22;10800;53.096;18.328;2023-03-04T09:07:32;3.90;99.90
21282;DHT22;10800;53.096;18.328;2023-03-04T09:12:37;3.90;99.90
21282;DHT22;10800;53.096;18.328;2023-03-04T09:17:44;3.80;99.90
21282;DHT22;10800;53.096;18.328;2023-03-04T09:22:50;3.80;99.90
21282;DHT22;10800;53.096;18.328;2023-03-04T09:27:56;3.80;99.90
21282;DHT22;10800;53.096;18.328;2023-03-04T09:33:02;3.90;99.90
21282;DHT22;10800;53.096;18.328;2023-03-04T09:38:07;4.00;99.90
21282;DHT22;10800;53.096;18.328;2023-03-04T09:43:26;4.00;99.90
21282;DHT22;10800;53.096;18.328;2023-03-04T09:48:35;4.10;99.90
21282;DHT22;10800;53.096;18.328;2023-03-04T10:04:47;4.40;99.90
21282;DHT22;10800;53.096;18.328;2023-03-04T10:09:18;4.40;99.90
21282;DHT22;10800;53.096;18.328;2023-03-04T10:14:37;4.40;99.90
21282;DHT22;10800;53.096;18.328;2023-03-04T10:19:54;4.50;99.90
21282;DHT22;10800;53.096;18.328;2023-03-04T10:25:25;4.70;99.90
21282;DHT22;10800;53.096;18.328;2023-03-04T10:35:51;4.80;99.90
21282;DHT22;10800;53.096;18.328;2023-03-04T10:40:59;4.90;99.90
21282;DHT22;10800;53.096;18.328;2023-03-04T10:46:04;5.20;99.90
21282;DHT22;10800;53.096;18.328;2023-03-04T10:51:15;5.60;99.90
21282;DHT22;10800;53.096;18.328;2023-03-04T10:56:33;5.70;99.90
21282;DHT22;10800;53.096;18.328;2023-03-04T11:01:39;6.00;99.90
21282;DHT22;10800;53.096;18.328;2023-03-04T11:06:44;6.30;99.90
21282;DHT22;10800;53.096;18.328;2023-03-04T11:12:00;6.40;99.90
21282;DHT22;10800;53.096;18.328;2023-03-04T11:17:28;6.50;99.90
21282;DHT22;10800;53.096;18.328;2023-03-04T11:22:31;6.70;99.90
21282;DHT22;10800;53.096;18.328;2023-03-04T11:27:41;6.60;90.90
21282;DHT22;10800;53.096;18.328;2023-03-04T11:32:49;6.40;84.90
21282;DHT22;10800;53.096;18.328;2023-03-04T11:43:34;6.20;77.20
21282;DHT22;10800;53.096;18.328;2023-03-04T12:00:37;6.30;77.00
21282;DHT22;10800;53.096;18.328;2023-03-04T12:05:56;6.40;74.60
21282;DHT22;10800;53.096;18.328;2023-03-04T12:11:08;6.30;73.20
21282;DHT22;10800;53.096;18.328;2023-03-04T12:27:07;6.40;68.80
21282;DHT22;10800;53.096;18.328;2023-03-04T12:37:56;6.50;67.20
21282;DHT22;10800;53.096;18.328;2023-03-04T12:48:34;7.00;60.40
21282;DHT22;10800;53.096;18.328;2023-03-04T12:59:22;6.60;57.90
21282;DHT22;10800;53.096;18.328;2023-03-04T13:09:57;6.50;59.00
21282;DHT22;10800;53.096;18.328;2023-03-04T13:36:25;6.70;55.60
21282;DHT22;10800;53.096;18.328;2023-03-04T13:46:28;6.70;53.30
21282;DHT22;10800;53.096;18.328;2023-03-04T13:51:35;6.60;52.90
21282;DHT22;10800;53.096;18.328;2023-03-04T13:57:30;6.30;53.40
21282;DHT22;10800;53.096;18.328;2023-03-04T14:02:02;6.10;52.20
21282;DHT22;10800;53.096;18.328;2023-03-04T14:07:28;5.70;54.50
21282;DHT22;10800;53.096;18.328;2023-03-04T14:12:47;5.60;55.80
21282;DHT22;10800;53.096;18.328;2023-03-04T14:18:00;5.40;53.10
21282;DHT22;10800;53.096;18.328;2023-03-04T14:28:29;5.60;54.60
21282;DHT22;10800;53.096;18.328;2023-03-04T14:33:34;5.50;55.60
21282;DHT22;10800;53.096;18.328;2023-03-04T14:38:40;5.50;56.90
21282;DHT22;10800;53.096;18.328;2023-03-04T14:49:00;5.10;56.60
21282;DHT22;10800;53.096;18.328;2023-03-04T14:54:06;5.00;56.70
21282;DHT22;10800;53.096;18.328;2023-03-04T14:59:12;4.90;56.90
21282;DHT22;10800;53.096;18.328;2023-03-04T15:04:19;4.80;55.80
21282;DHT22;10800;53.096;18.328;2023-03-04T15:09:25;4.80;55.60
21282;DHT22;10800;53.096;18.328;2023-03-04T15:14:46;4.90;55.70
21282;DHT22;10800;53.096;18.328;2023-03-04T15:25:14;4.80;54.70
21282;DHT22;10800;53.096;18.328;2023-03-04T15:30:31;4.50;54.10
21282;DHT22;10800;53.096;18.328;2023-03-04T15:35:37;4.30;53.60
21282;DHT22;10800;53.096;18.328;2023-03-04T15:40:43;4.10;53.40
21282;DHT22;10800;53.096;18.328;2023-03-04T15:45:50;3.90;54.90
21282;DHT22;10800;53.096;18.328;2023-03-04T15:50:59;3.80;57.10
21282;DHT22;10800;53.096;18.328;2023-03-04T15:56:09;3.90;55.10
21282;DHT22;10800;53.096;18.328;2023-03-04T16:01:15;4.00;56.00
21282;DHT22;10800;53.096;18.328;2023-03-04T16:06:22;3.80;57.90
21282;DHT22;10800;53.096;18.328;2023-03-04T16:11:36;3.70;57.90
21282;DHT22;10800;53.096;18.328;2023-03-04T16:16:41;3.60;58.30
21282;DHT22;10800;53.096;18.328;2023-03-04T16:21:48;3.50;59.80
21282;DHT22;10800;53.096;18.328;2023-03-04T16:26:54;3.40;60.40
21282;DHT22;10800;53.096;18.328;2023-03-04T16:31:59;3.30;60.00
21282;DHT22;10800;53.096;18.328;2023-03-04T16:37:12;3.20;59.70
21282;DHT22;10800;53.096;18.328;2023-03-04T16:42:19;3.10;61.00
21282;DHT22;10800;53.096;18.328;2023-03-04T16:47:25;3.00;61.00
21282;DHT22;10800;53.096;18.328;2023-03-04T16:52:37;2.90;62.20
21282;DHT22;10800;53.096;18.328;2023-03-04T16:57:43;2.80;60.20
21282;DHT22;10800;53.096;18.328;2023-03-04T17:02:59;2.70;60.50
21282;DHT22;10800;53.096;18.328;2023-03-04T17:08:05;2.70;59.00
21282;DHT22;10800;53.096;18.328;2023-03-04T17:13:10;2.50;59.00
21282;DHT22;10800;53.096;18.328;2023-03-04T17:18:15;2.40;59.60
21282;DHT22;10800;53.096;18.328;2023-03-04T17:23:20;2.40;59.60
21282;DHT22;10800;53.096;18.328;2023-03-04T17:28:26;2.30;60.70
21282;DHT22;10800;53.096;18.328;2023-03-04T17:33:32;2.20;61.40
21282;DHT22;10800;53.096;18.328;2023-03-04T17:38:37;2.00;62.00
21282;DHT22;10800;53.096;18.328;2023-03-04T17:43:45;1.90;62.10
21282;DHT22;10800;53.096;18.328;2023-03-04T17:48:54;1.70;63.10
21282;DHT22;10800;53.096;18.328;2023-03-04T17:54:00;1.70;62.70
21282;DHT22;10800;53.096;18.328;2023-03-04T17:59:16;1.50;63.00
21282;DHT22;10800;53.096;18.328;2023-03-04T18:04:21;1.50;60.10
21282;DHT22;10800;53.096;18.328;2023-03-04T18:09:26;1.40;60.70
21282;DHT22;10800;53.096;18.328;2023-03-04T18:14:31;1.40;59.80
21282;DHT22;10800;53.096;18.328;2023-03-04T18:19:36;1.20;60.70
21282;DHT22;10800;53.096;18.328;2023-03-04T18:24:43;1.10;62.10
21282;DHT22;10800;53.096;18.328;2023-03-04T18:29:48;1.00;62.00
21282;DHT22;10800;53.096;18.328;2023-03-04T18:34:53;0.90;62.90
21282;DHT22;10800;53.096;18.328;2023-03-04T18:39:58;0.80;63.20
21282;DHT22;10800;53.096;18.328;2023-03-04T18:45:04;0.80;64.50
21282;DHT22;10800;53.096;18.328;2023-03-04T18:50:10;0.60;64.60
21282;DHT22;10800;53.096;18.328;2023-03-04T18:55:17;0.50;65.70
21282;DHT22;10800;53.096;18.328;2023-03-04T19:00:23;0.30;66.30
21282;DHT22;10800;53.096;18.328;2023-03-04T19:05:31;0.20;66.50
21282;DHT22;10800;53.096;18.328;2023-03-04T19:10:36;0.10;66.80
21282;DHT22;10800;53.096;18.328;2023-03-04T19:15:41;0.00;67.30
21282;DHT22;10800;53.096;18.328;2023-03-04T19:20:47;-0.10;68.30
21282;DHT22;10800;53.096;18.328;2023-03-04T19:25:52;-0.30;69.50
21282;DHT22;10800;53.096;18.328;2023-03-04T19:30:57;-0.40;70.30
21282;DHT22;10800;53.096;18.328;2023-03-04T19:36:04;-0.50;71.30
21282;DHT22;10800;53.096;18.328;2023-03-04T19:41:11;-0.60;71.90
21282;DHT22;10800;53.096;18.328;2023-03-04T19:46:17;-0.70;72.30
21282;DHT22;10800;53.096;18.328;2023-03-04T19:51:24;-0.80;72.80
21282;DHT22;10800;53.096;18.328;2023-03-04T19:56:30;-0.90;73.30
21282;DHT22;10800;53.096;18.328;2023-03-04T20:01:36;-0.90;73.50
21282;DHT22;10800;53.096;18.328;2023-03-04T20:06:47;-1.00;74.00
21282;DHT22;10800;53.096;18.328;2023-03-04T20:11:53;-1.10;75.00
21282;DHT22;10800;53.096;18.328;2023-03-04T20:17:02;-1.10;75.50
21282;DHT22;10800;53.096;18.328;2023-03-04T20:22:07;-1.20;76.20
21282;DHT22;10800;53.096;18.328;2023-03-04T20:27:13;-1.30;76.40
21282;DHT22;10800;53.096;18.328;2023-03-04T20:32:21;-1.40;77.10
21282;DHT22;10800;53.096;18.328;2023-03-04T20:37:27;-1.40;77.60
21282;DHT22;10800;53.096;18.328;2023-03-04T20:42:33;-1.40;77.20
21282;DHT22;10800;53.096;18.328;2023-03-04T20:47:39;-1.40;77.10
21282;DHT22;10800;53.096;18.328;2023-03-04T20:52:48;-1.50;77.10
21282;DHT22;10800;53.096;18.328;2023-03-04T20:57:54;-1.50;77.40
21282;DHT22;10800;53.096;18.328;2023-03-04T21:02:59;-1.50;77.40
21282;DHT22;10800;53.096;18.328;2023-03-04T21:08:05;-1.60;77.90
21282;DHT22;10800;53.096;18.328;2023-03-04T21:13:10;-1.60;78.50
21282;DHT22;10800;53.096;18.328;2023-03-04T21:18:17;-1.60;78.60
21282;DHT22;10800;53.096;18.328;2023-03-04T21:23:25;-1.60;79.10
21282;DHT22;10800;53.096;18.328;2023-03-04T21:28:30;-1.70;79.40
21282;DHT22;10800;53.096;18.328;2023-03-04T21:33:36;-1.70;79.70
21282;DHT22;10800;53.096;18.328;2023-03-04T21:38:42;-1.80;80.10
21282;DHT22;10800;53.096;18.328;2023-03-04T21:43:48;-1.80;80.00
21282;DHT22;10800;53.096;18.328;2023-03-04T21:48:53;-1.80;80.40
21282;DHT22;10800;53.096;18.328;2023-03-04T21:53:58;-1.90;80.60
21282;DHT22;10800;53.096;18.328;2023-03-04T21:59:05;-1.90;81.20
21282;DHT22;10800;53.096;18.328;2023-03-04T22:04:11;-2.00;81.50
21282;DHT22;10800;53.096;18.328;2023-03-04T22:09:16;-2.00;81.50
21282;DHT22;10800;53.096;18.328;2023-03-04T22:14:21;-2.10;81.10
21282;DHT22;10800;53.096;18.328;2023-03-04T22:19:29;-2.10;81.00
21282;DHT22;10800;53.096;18.328;2023-03-04T22:24:34;-2.10;81.00
21282;DHT22;10800;53.096;18.328;2023-03-04T22:29:40;-2.10;81.60
21282;DHT22;10800;53.096;18.328;2023-03-04T22:34:45;-2.10;82.20
21282;DHT22;10800;53.096;18.328;2023-03-04T22:39:50;-2.10;82.30
21282;DHT22;10800;53.096;18.328;2023-03-04T22:44:55;-2.10;82.90
21282;DHT22;10800;53.096;18.328;2023-03-04T22:50:00;-2.10;83.10
21282;DHT22;10800;53.096;18.328;2023-03-04T22:55:06;-2.10;84.00
21282;DHT22;10800;53.096;18.328;2023-03-04T23:00:21;-2.20;83.80
21282;DHT22;10800;53.096;18.328;2023-03-04T23:05:27;-2.20;84.80
21282;DHT22;10800;53.096;18.328;2023-03-04T23:10:33;-2.20;85.70
21282;DHT22;10800;53.096;18.328;2023-03-04T23:15:39;-2.20;85.50
21282;DHT22;10800;53.096;18.328;2023-03-04T23:20:44;-2.20;85.70
21282;DHT22;10800;53.096;18.328;2023-03-04T23:25:50;-2.30;85.70
21282;DHT22;10800;53.096;18.328;2023-03-04T23:30:55;-2.30;86.20
21282;DHT22;10800;53.096;18.328;2023-03-04T23:36:00;-2.30;87.00
21282;DHT22;10800;53.096;18.328;2023-03-04T23:41:05;-2.30;86.80
21282;DHT22;10800;53.096;18.328;2023-03-04T23:46:11;-2.40;86.50
21282;DHT22;10800;53.096;18.328;2023-03-04T23:51:19;-2.30;86.40
21282;DHT22;10800;53.096;18.328;2023-03-04T23:56:27;-2.30;86.30
